createdAt,value
2019-02-04T00:00:45.971Z,98308.55
2019-02-04T00:03:14.557Z,98311.56
2019-02-04T00:05:42.709Z,98318.00
2019-02-04T00:08:10.850Z,98316.70
2019-02-04T00:10:38.980Z,98318.77
2019-02-04T00:13:07.181Z,98317.72
2019-02-04T00:15:35.413Z,98322.61
2019-02-04T00:18:03.797Z,98323.95
2019-02-04T00:20:31.960Z,98324.98
2019-02-04T00:23:00.144Z,98331.98
2019-02-04T00:25:28.306Z,98328.55
2019-02-04T00:27:56.762Z,98333.86
2019-02-04T00:30:24.972Z,98337.09
2019-02-04T00:32:53.184Z,98335.20
2019-02-04T00:35:21.353Z,98344.38
2019-02-04T00:37:49.523Z,98340.63
2019-02-04T00:40:17.745Z,98343.02
2019-02-04T00:42:46.293Z,98349.74
2019-02-04T00:45:14.441Z,98351.36
2019-02-04T00:47:42.591Z,98349.50
2019-02-04T00:50:10.853Z,98354.58
2019-02-04T00:52:39.008Z,98362.11
2019-02-04T00:55:07.377Z,98364.51
2019-02-04T00:57:35.589Z,98366.95
2019-02-04T01:00:04.176Z,98373.42
2019-02-04T01:02:32.347Z,98377.16
2019-02-04T01:05:00.642Z,98383.67
2019-02-04T01:07:28.896Z,98379.84
2019-02-04T01:09:57.076Z,98382.24
2019-02-04T01:12:25.300Z,98387.13
2019-02-04T01:14:55.118Z,98395.42
2019-02-04T01:17:23.255Z,98389.53
2019-02-04T01:19:51.441Z,98395.95
2019-02-04T01:22:19.629Z,98401.61
2019-02-04T01:24:48.286Z,98399.21
2019-02-04T01:27:17.590Z,98406.16
2019-02-04T01:29:47.389Z,98398.11
2019-02-04T01:32:15.558Z,98402.46
2019-02-04T01:34:43.699Z,98402.52
2019-02-04T01:37:11.902Z,98411.86
2019-02-04T01:39:40.135Z,98418.33
2019-02-04T01:42:08.295Z,98416.45
2019-02-04T01:44:38.119Z,98415.88
2019-02-04T01:47:14.360Z,98420.12
2019-02-04T01:49:36.100Z,98415.89
2019-02-04T01:52:04.283Z,98419.72
2019-02-04T01:54:32.491Z,98417.03
2019-02-04T01:57:00.660Z,98419.10
2019-02-04T01:59:30.481Z,98422.84
2019-02-04T02:01:58.624Z,98423.13
2019-02-04T02:04:26.796Z,98423.70
2019-02-04T02:06:55.001Z,98429.03
2019-02-04T02:09:25.161Z,98429.64
2019-02-04T02:11:53.397Z,98431.83
2019-02-04T02:14:23.201Z,98432.81
2019-02-04T02:16:51.396Z,98432.57
2019-02-04T02:19:19.567Z,98427.53
2019-02-04T02:21:47.725Z,98433.91
2019-02-04T02:24:15.889Z,98436.55
2019-02-04T02:26:44.121Z,98435.25
2019-02-04T02:29:13.953Z,98432.28
2019-02-04T02:31:42.145Z,98436.59
2019-02-04T02:34:10.298Z,98437.36
2019-02-04T02:36:38.497Z,98433.05
2019-02-04T02:39:07.934Z,98441.67
2019-02-04T02:41:36.154Z,98433.74
2019-02-04T02:44:04.341Z,98436.59
2019-02-04T02:46:32.562Z,98439.32
2019-02-04T02:49:00.758Z,98440.17
2019-02-04T02:51:28.957Z,98445.82
2019-02-04T02:53:57.180Z,98447.66
2019-02-04T02:56:25.383Z,98450.26
2019-02-04T02:58:53.584Z,98450.34
2019-02-04T03:01:23.417Z,98451.69
2019-02-04T03:03:51.640Z,98452.45
2019-02-04T03:06:19.814Z,98457.54
2019-02-04T03:08:48.078Z,98450.33
2019-02-04T03:11:16.205Z,98459.23
2019-02-04T03:13:44.418Z,98454.66
2019-02-04T03:16:14.225Z,98460.02
2019-02-04T03:18:42.441Z,98457.09
2019-02-04T03:21:10.636Z,98462.98
2019-02-04T03:23:38.822Z,98463.55
2019-02-04T03:26:07.017Z,98464.33
2019-02-04T03:28:35.181Z,98469.69
2019-02-04T03:31:03.330Z,98471.00
2019-02-04T03:33:31.523Z,98475.02
2019-02-04T03:35:59.682Z,98482.63
2019-02-04T03:38:27.871Z,98481.04
2019-02-04T03:40:56.083Z,98494.17
2019-02-04T03:43:24.262Z,98494.95
2019-02-04T03:45:52.450Z,98495.77
2019-02-04T03:48:20.577Z,98495.02
2019-02-04T03:51:07.651Z,98509.74
2019-02-04T03:53:35.904Z,98506.50
2019-02-04T03:56:03.996Z,98498.45
2019-02-04T03:58:33.806Z,98509.78
2019-02-04T04:01:01.969Z,98515.92
2019-02-04T04:03:30.121Z,98513.77
2019-02-04T04:05:58.273Z,98518.57
2019-02-04T04:08:26.465Z,98515.15
2019-02-04T04:10:54.630Z,98522.91
2019-02-04T04:13:22.780Z,98527.22
2019-02-04T04:15:50.927Z,98532.80
2019-02-04T04:18:38.053Z,98532.34
2019-02-04T04:21:06.233Z,98532.91
2019-02-04T04:23:34.452Z,98539.30
2019-02-04T04:26:04.266Z,98540.36
2019-02-04T04:28:32.429Z,98544.66
2019-02-04T04:31:00.589Z,98547.03
2019-02-04T04:33:28.782Z,98550.28
2019-02-04T04:35:56.972Z,98551.06
2019-02-04T04:38:25.135Z,98562.08
2019-02-04T04:40:53.280Z,98562.39
2019-02-04T04:43:21.615Z,98560.80
2019-02-04T04:45:49.777Z,98555.36
2019-02-04T04:48:26.282Z,98564.80
2019-02-04T04:50:47.732Z,98568.81
2019-02-04T04:53:15.902Z,98566.10
2019-02-04T04:55:44.084Z,98567.76
2019-02-04T04:58:12.281Z,98575.53
2019-02-04T05:00:40.522Z,98574.16
2019-02-04T05:03:08.685Z,98568.22
2019-02-04T05:05:36.773Z,98570.69
2019-02-04T05:08:04.896Z,98578.45
2019-02-04T05:10:33.002Z,98581.17
2019-02-04T05:13:02.796Z,98590.03
2019-02-04T05:15:30.897Z,98592.19
2019-02-04T05:17:59.007Z,98601.83
2019-02-04T05:20:27.103Z,98600.55
2019-02-04T05:22:55.201Z,98599.20
2019-02-04T05:25:23.356Z,98601.61
2019-02-04T05:27:51.809Z,98560.48
2019-02-04T05:30:20.825Z,98619.80
2019-02-04T05:32:49.045Z,98619.33
2019-02-04T05:35:17.224Z,98616.93
2019-02-04T05:37:45.416Z,98623.61
2019-02-04T05:40:14.044Z,98625.20
2019-02-04T05:42:42.245Z,98628.44
2019-02-04T05:45:10.886Z,98632.19
2019-02-04T05:47:39.097Z,98627.58
2019-02-04T05:50:08.559Z,98624.39
2019-02-04T05:52:36.734Z,98625.48
2019-02-04T05:55:05.160Z,98626.55
2019-02-04T05:57:33.288Z,98628.72
2019-02-04T06:00:01.660Z,98622.02
2019-02-04T06:02:29.854Z,98623.08
2019-02-04T06:04:57.992Z,98625.48
2019-02-04T06:07:26.231Z,98629.25
2019-02-04T06:09:54.408Z,98631.18
2019-02-04T06:12:22.598Z,98637.55
2019-02-04T06:14:52.408Z,98639.73
2019-02-04T06:17:20.565Z,98642.42
2019-02-04T06:19:48.714Z,98637.59
2019-02-04T06:22:35.949Z,98644.57
2019-02-04T06:25:23.033Z,98647.84
2019-02-04T06:27:51.186Z,98647.78
2019-02-04T06:30:19.411Z,98649.16
2019-02-04T06:32:47.515Z,98656.95
2019-02-04T06:35:15.770Z,98658.01
2019-02-04T06:37:46.826Z,98660.42
2019-02-04T06:40:15.465Z,98660.92
2019-02-04T06:42:43.661Z,98665.76
2019-02-04T06:48:06.178Z,98670.59
2019-02-04T06:50:34.384Z,98675.45
2019-02-04T06:53:02.596Z,98677.60
2019-02-04T06:55:31.442Z,98679.78
2019-02-04T06:57:59.655Z,98674.97
2019-02-04T07:00:27.872Z,98666.63
2019-02-04T07:02:56.079Z,98659.63
2019-02-04T07:05:24.276Z,98660.44
2019-02-04T07:07:52.442Z,98668.23
2019-02-04T07:10:21.362Z,98674.13
2019-02-04T07:12:49.580Z,98673.33
2019-02-04T07:15:17.862Z,98670.11
2019-02-04T07:17:46.064Z,98666.56
2019-02-04T07:20:15.883Z,98674.92
2019-02-04T07:22:44.036Z,98676.52
2019-02-04T07:25:12.453Z,98679.75
2019-02-04T07:27:40.589Z,98682.47
2019-02-04T07:30:10.250Z,98688.87
2019-02-04T07:32:38.414Z,98692.89
2019-02-04T07:35:06.942Z,98691.32
2019-02-04T07:37:35.128Z,98689.19
2019-02-04T07:40:03.335Z,98698.56
2019-02-04T07:42:31.505Z,98696.91
2019-02-04T07:44:59.658Z,98695.34
2019-02-04T07:47:27.821Z,98704.41
2019-02-04T07:49:56.017Z,98709.27
2019-02-04T07:52:24.467Z,98707.67
2019-02-04T07:54:52.584Z,98707.64
2019-02-04T07:57:20.765Z,98705.52
2019-02-04T07:59:48.902Z,98706.31
2019-02-04T08:02:17.077Z,98706.59
2019-02-04T08:04:45.225Z,98637.63
2019-02-04T08:07:13.440Z,98706.81
2019-02-04T08:09:41.627Z,98703.80
2019-02-04T08:12:09.781Z,98702.73
2019-02-04T08:14:38.030Z,98704.64
2019-02-04T08:17:06.277Z,98707.05
2019-02-04T08:19:34.492Z,98712.72
2019-02-04T08:22:02.761Z,98720.48
2019-02-04T08:24:31.177Z,98723.66
2019-02-04T08:26:59.377Z,98726.89
2019-02-04T08:29:27.555Z,98730.62
2019-02-04T08:31:55.757Z,98729.00
2019-02-04T08:34:23.967Z,98730.34
2019-02-04T08:36:52.305Z,98729.48
2019-02-04T08:39:20.602Z,98728.41
2019-02-04T08:41:48.752Z,98679.00
2019-02-04T08:44:16.901Z,98733.78
2019-02-04T08:46:45.034Z,98735.36
2019-02-04T08:49:13.174Z,98736.45
2019-02-04T08:51:41.329Z,98734.59
2019-02-04T08:54:09.477Z,98743.45
2019-02-04T08:56:37.680Z,98741.89
2019-02-04T08:59:05.830Z,98743.45
2019-02-04T09:01:33.960Z,98743.20
2019-02-04T09:04:02.146Z,98743.96
2019-02-04T09:06:30.257Z,98749.08
2019-02-04T09:08:58.394Z,98747.18
2019-02-04T09:11:26.536Z,98748.55
2019-02-04T09:13:54.664Z,98749.89
2019-02-04T09:16:22.835Z,98747.77
2019-02-04T09:18:50.983Z,98741.61
2019-02-04T09:21:19.245Z,98749.11
2019-02-04T09:23:47.384Z,98743.13
2019-02-04T09:26:15.548Z,98742.90
2019-02-04T09:28:43.700Z,98744.52
2019-02-04T09:31:11.836Z,98746.14
2019-02-04T09:33:39.991Z,98746.92
2019-02-04T09:36:08.128Z,98752.84
2019-02-04T09:38:36.262Z,98752.86
2019-02-04T09:41:04.388Z,98749.10
2019-02-04T09:43:32.563Z,98750.16
2019-02-04T09:46:00.714Z,98752.05
2019-02-04T09:48:28.835Z,98757.95
2019-02-04T09:50:57.946Z,98753.13
2019-02-04T09:53:26.089Z,98753.13
2019-02-04T09:55:56.888Z,98752.57
2019-02-04T09:58:24.121Z,98749.03
2019-02-04T10:00:52.290Z,98745.26
2019-02-04T10:03:20.420Z,98745.23
2019-02-04T10:05:48.547Z,98746.32
2019-02-04T10:08:16.709Z,98744.14
2019-02-04T10:10:44.853Z,98738.52
2019-02-04T10:13:13.013Z,98739.33
2019-02-04T10:15:41.356Z,98739.86
2019-02-04T10:18:10.133Z,98738.75
2019-02-04T10:20:38.469Z,98733.66
2019-02-04T10:23:06.659Z,98734.47
2019-02-04T10:25:35.575Z,98733.06
2019-02-04T10:28:03.716Z,98733.94
2019-02-04T10:30:31.876Z,98733.09
2019-02-04T10:33:00.199Z,98730.97
2019-02-04T10:35:28.764Z,98728.53
2019-02-04T10:37:56.891Z,98730.69
2019-02-04T10:40:25.532Z,98726.13
2019-02-04T10:42:53.949Z,98716.95
2019-02-04T10:45:22.218Z,98710.83
2019-02-04T10:47:50.361Z,98709.46
2019-02-04T10:50:20.108Z,98704.63
2019-02-04T10:52:48.297Z,98693.85
2019-02-04T10:55:16.650Z,98695.19
2019-02-04T10:57:44.866Z,98700.00
2019-02-04T11:00:14.264Z,98704.56
2019-02-04T11:02:42.643Z,98706.19
2019-02-04T11:05:12.014Z,98697.84
2019-02-04T11:07:40.620Z,98696.50
2019-02-04T11:10:09.424Z,98698.91
2019-02-04T11:12:37.632Z,98697.81
2019-02-04T11:15:06.562Z,98691.88
2019-02-04T11:17:34.699Z,98691.35
2019-02-04T11:20:02.921Z,98692.69
2019-02-04T11:22:31.552Z,98689.45
2019-02-04T11:24:59.719Z,98686.76
2019-02-04T11:27:27.889Z,98675.95
2019-02-04T11:29:56.100Z,98671.14
2019-02-04T11:32:24.363Z,98674.92
2019-02-04T11:34:52.533Z,98674.88
2019-02-04T11:37:20.773Z,98675.66
2019-02-04T11:39:48.951Z,98666.02
2019-02-04T11:42:17.143Z,98661.73
2019-02-04T11:44:45.314Z,98671.62
2019-02-04T11:47:13.564Z,98675.41
2019-02-04T11:49:41.810Z,98676.72
2019-02-04T11:52:10.028Z,98665.98
2019-02-04T11:54:38.589Z,98665.77
2019-02-04T11:57:06.811Z,98667.42
2019-02-04T11:59:35.006Z,98664.78
2019-02-04T12:02:03.309Z,98660.97
2019-02-04T12:04:31.480Z,98659.30
2019-02-04T12:06:59.646Z,98663.89
2019-02-04T12:09:27.852Z,98660.47
2019-02-04T12:11:56.055Z,98654.56
2019-02-04T12:14:24.244Z,98657.04
2019-02-04T12:16:52.393Z,98648.45
2019-02-04T12:19:20.564Z,98651.63
2019-02-04T12:21:48.768Z,98645.98
2019-02-04T12:24:16.950Z,98646.02
2019-02-04T12:26:45.422Z,98648.98
2019-02-04T12:29:13.621Z,98639.27
2019-02-04T12:31:41.880Z,98643.58
2019-02-04T12:34:10.166Z,98643.61
2019-02-04T12:36:38.362Z,98641.14
2019-02-04T12:39:09.813Z,98637.89
2019-02-04T12:41:38.076Z,98646.23
2019-02-04T12:44:06.619Z,98640.33
2019-02-04T12:46:34.793Z,98635.16
2019-02-04T12:49:03.276Z,98628.45
2019-02-04T12:51:33.608Z,98625.80
2019-02-04T12:54:01.269Z,98623.44
2019-02-04T12:56:29.538Z,98617.81
2019-02-04T12:58:57.914Z,98611.64
2019-02-04T13:01:26.047Z,98612.09
2019-02-04T13:03:54.250Z,98603.33
2019-02-04T13:06:22.447Z,98602.41
2019-02-04T13:08:50.836Z,98602.73
2019-02-04T13:11:19.234Z,98597.89
2019-02-04T13:13:47.711Z,98593.37
2019-02-04T13:16:16.087Z,98588.24
2019-02-04T13:18:44.191Z,98593.19
2019-02-04T13:21:12.427Z,98587.86
2019-02-04T13:23:40.609Z,98582.73
2019-02-04T13:26:08.847Z,98582.45
2019-02-04T13:28:37.009Z,98586.20
2019-02-04T13:31:05.166Z,98583.72
2019-02-04T13:33:33.318Z,98581.08
2019-02-04T13:36:01.613Z,98576.80
2019-02-04T13:38:29.803Z,98575.45
2019-02-04T13:41:07.615Z,98569.23
2019-02-04T13:43:27.812Z,98564.15
2019-02-04T13:45:56.264Z,98558.49
2019-02-04T13:48:24.469Z,98562.03
2019-02-04T13:50:52.577Z,98548.93
2019-02-04T13:53:20.761Z,98540.20
2019-02-04T13:55:48.987Z,98542.23
2019-02-04T13:58:17.229Z,98534.50
2019-02-04T14:00:45.934Z,98535.36
2019-02-04T14:03:14.114Z,98531.95
2019-02-04T14:05:43.577Z,98529.55
2019-02-04T14:08:11.751Z,98524.22
2019-02-04T14:10:41.022Z,98525.00
2019-02-04T14:13:09.255Z,98526.91
2019-02-04T14:15:38.924Z,98514.25
2019-02-04T14:18:07.174Z,98513.44
2019-02-04T14:20:35.661Z,98510.50
2019-02-04T14:23:03.807Z,98508.94
2019-02-04T14:25:32.035Z,98505.67
2019-02-04T14:28:03.325Z,98501.94
2019-02-04T14:30:31.042Z,98497.12
2019-02-04T14:32:59.663Z,98494.41
2019-02-04T14:35:27.842Z,98480.20
2019-02-04T14:37:56.075Z,98478.86
2019-02-04T14:40:24.402Z,98476.17
2019-02-04T14:42:54.243Z,98475.90
2019-02-04T14:45:25.640Z,98473.98
2019-02-04T14:48:04.237Z,98470.53
2019-02-04T14:50:37.144Z,98463.28
2019-02-04T14:53:23.319Z,98464.02
2019-02-04T14:55:54.474Z,98460.00
2019-02-04T14:58:28.484Z,98460.23
2019-02-04T15:01:14.419Z,98465.86
2019-02-04T15:04:07.663Z,98465.57
2019-02-04T15:06:40.845Z,98472.85
2019-02-04T15:09:28.149Z,98473.15
2019-02-04T15:12:33.929Z,98475.32
2019-02-04T15:15:40.077Z,98466.72
2019-02-04T15:18:42.678Z,98464.84
2019-02-04T15:21:39.000Z,98468.02
2019-02-04T15:24:25.541Z,98469.11
2019-02-04T15:27:11.378Z,98457.03
2019-02-04T15:29:47.604Z,98456.79
2019-02-04T15:32:29.489Z,98460.86
2019-02-04T15:35:16.008Z,98460.02
2019-02-04T15:38:06.479Z,98462.19
2019-02-04T15:40:37.813Z,98461.41
2019-02-04T15:43:34.121Z,98470.23
2019-02-04T15:46:08.952Z,98475.37
2019-02-04T15:48:46.878Z,98474.83
2019-02-04T15:51:18.131Z,98475.37
2019-02-04T15:53:46.344Z,98481.59
2019-02-04T15:56:14.489Z,98483.41
2019-02-04T15:58:42.766Z,98486.11
2019-02-04T16:01:10.918Z,98480.01
2019-02-04T16:03:39.145Z,98487.49
2019-02-04T16:06:07.336Z,98485.38
2019-02-04T16:08:35.560Z,98486.72
2019-02-04T16:11:04.169Z,98485.88
2019-02-04T16:13:32.343Z,98488.84
2019-02-04T16:16:00.529Z,98490.19
2019-02-04T16:18:28.695Z,98484.94
2019-02-04T16:20:56.918Z,98485.47
2019-02-04T16:23:25.092Z,98486.77
2019-02-04T16:25:53.330Z,98488.88
2019-02-04T16:28:21.715Z,98492.66
2019-02-04T16:30:49.964Z,98494.05
2019-02-04T16:33:18.111Z,98498.08
2019-02-04T16:35:46.261Z,98497.30
2019-02-04T16:38:14.620Z,98498.41
2019-02-04T16:40:42.796Z,98506.42
2019-02-04T16:43:11.060Z,98497.52
2019-02-04T16:45:39.223Z,98506.14
2019-02-04T16:48:07.578Z,98510.17
2019-02-04T16:50:35.789Z,98516.11
2019-02-04T16:53:10.571Z,98517.73
2019-02-04T16:55:33.759Z,98519.08
2019-02-04T16:58:01.906Z,98518.26
2019-02-04T17:00:30.761Z,98517.23
2019-02-04T17:02:58.971Z,98519.08
2019-02-04T17:05:27.388Z,98523.71
2019-02-04T17:07:55.777Z,98512.16
2019-02-04T17:10:24.264Z,98518.59
2019-02-04T17:12:52.475Z,98520.20
2019-02-04T17:15:20.641Z,98514.56
2019-02-04T17:17:48.857Z,98515.41
2019-02-04T17:20:18.320Z,98517.23
2019-02-04T17:22:46.485Z,98514.03
2019-02-04T17:25:14.622Z,98522.33
2019-02-04T17:27:42.775Z,98520.45
2019-02-04T17:30:12.612Z,98526.92
2019-02-04T17:32:41.108Z,98519.69
2019-02-04T17:35:09.323Z,98516.47
2019-02-04T17:37:37.448Z,98523.71
2019-02-04T17:40:06.858Z,98525.30
2019-02-04T17:42:35.021Z,98523.75
2019-02-04T17:45:03.167Z,98519.16
2019-02-04T17:47:31.696Z,98517.53
2019-02-04T17:50:00.318Z,98520.20
2019-02-04T17:52:28.451Z,98517.81
2019-02-04T17:54:56.589Z,98521.43
2019-02-04T17:57:24.716Z,98525.22
2019-02-04T17:59:52.857Z,98525.79
2019-02-04T18:02:20.981Z,98523.46
2019-02-04T18:04:49.420Z,98531.81
2019-02-04T18:07:20.500Z,98525.95
2019-02-04T18:09:47.370Z,98522.98
2019-02-04T18:12:15.523Z,98523.83
2019-02-04T18:14:43.659Z,98519.23
2019-02-04T18:17:11.877Z,98507.52
2019-02-04T18:19:40.421Z,98513.00
2019-02-04T18:22:08.563Z,98528.19
2019-02-04T18:24:36.725Z,98530.18
2019-02-04T18:27:05.180Z,98529.44
2019-02-04T18:29:33.320Z,98532.16
2019-02-04T18:32:01.805Z,98535.87
2019-02-04T18:34:29.953Z,98526.76
2019-02-04T18:36:58.098Z,98532.94
2019-02-04T18:39:26.228Z,98536.72
2019-02-04T18:41:55.669Z,98536.97
2019-02-04T18:44:23.917Z,98540.22
2019-02-04T18:46:52.227Z,98539.16
2019-02-04T18:49:20.365Z,98535.59
2019-02-04T18:51:48.506Z,98534.03
2019-02-04T18:54:16.664Z,98540.25
2019-02-04T18:56:44.828Z,98535.95
2019-02-04T18:59:12.969Z,98537.57
2019-02-04T19:01:41.099Z,98529.48
2019-02-04T19:04:11.041Z,98534.00
2019-02-04T19:06:47.362Z,98538.34
2019-02-04T19:11:58.401Z,98535.17
2019-02-04T19:14:26.978Z,98538.37
2019-02-04T19:16:55.136Z,98538.95
2019-02-04T19:19:23.293Z,98535.73
2019-02-04T19:21:51.445Z,98536.02
2019-02-04T19:24:19.630Z,98541.88
2019-02-04T19:26:47.865Z,98538.37
2019-02-04T19:29:16.036Z,98530.30
2019-02-04T19:31:45.836Z,98532.77
2019-02-04T19:34:33.166Z,98489.87
2019-02-04T19:37:01.354Z,98532.98
2019-02-04T19:39:29.676Z,98536.97
2019-02-04T19:41:57.921Z,98528.42
2019-02-04T19:44:27.720Z,98528.45
2019-02-04T19:49:43.477Z,98533.22
2019-02-04T19:52:12.278Z,98531.14
2019-02-04T19:54:40.435Z,98527.11
2019-02-04T19:57:09.200Z,98534.11
2019-02-04T19:59:37.530Z,98531.98
2019-02-04T20:02:24.634Z,98533.05
2019-02-04T20:04:52.806Z,98538.41
2019-02-04T20:07:21.123Z,98542.72
2019-02-04T20:09:49.306Z,98544.52
2019-02-04T20:12:17.540Z,98541.84
2019-02-04T20:17:32.876Z,98545.69
2019-02-04T20:20:02.714Z,98539.47
2019-02-04T20:22:30.931Z,98535.70
2019-02-04T20:24:59.156Z,98538.42
2019-02-04T20:27:27.312Z,98535.17
2019-02-04T20:29:55.456Z,98544.31
2019-02-04T20:32:23.632Z,98549.08
2019-02-04T20:34:51.809Z,98546.43
2019-02-04T20:37:20.088Z,98551.02
2019-02-04T20:39:48.246Z,98554.48
2019-02-04T20:42:16.404Z,98553.67
2019-02-04T20:44:44.641Z,98552.33
2019-02-04T20:47:31.870Z,98552.08
2019-02-04T20:50:01.679Z,98553.67
2019-02-04T20:52:29.961Z,98551.91
2019-02-04T20:57:45.282Z,98556.92
2019-02-04T21:00:16.514Z,98559.36
2019-02-04T21:02:44.688Z,98559.60
2019-02-04T21:05:12.831Z,98551.63
2019-02-04T21:07:41.025Z,98565.61
2019-02-04T21:10:10.365Z,98579.55
2019-02-04T21:12:38.501Z,98575.00
2019-02-04T21:15:07.684Z,98576.62
2019-02-04T21:20:23.487Z,98575.77
2019-02-04T21:22:51.663Z,98575.50
2019-02-04T21:25:38.704Z,98578.21
2019-02-04T21:28:06.892Z,98577.93
2019-02-04T21:30:36.323Z,98588.88
2019-02-04T21:33:04.472Z,98582.98
2019-02-04T21:35:32.636Z,98581.42
2019-02-04T21:38:00.812Z,98582.70
2019-02-04T21:40:31.352Z,98581.36
2019-02-04T21:42:59.472Z,98577.96
2019-02-04T21:45:27.688Z,98576.34
2019-02-04T21:47:55.852Z,98574.16
2019-02-04T21:50:43.431Z,98569.66
2019-02-04T21:53:11.588Z,98567.27
2019-02-04T21:55:39.754Z,98569.69
2019-02-04T21:58:07.912Z,98562.45
2019-02-04T22:00:36.970Z,98568.35
2019-02-04T22:03:05.139Z,98574.25
2019-02-04T22:05:33.825Z,98576.91
2019-02-04T22:08:03.646Z,98584.73
2019-02-04T22:10:31.817Z,98577.12
2019-02-04T22:12:59.938Z,98569.63
2019-02-04T22:15:28.167Z,98572.66
2019-02-04T22:17:56.293Z,98568.63
2019-02-04T22:20:24.578Z,98566.66
2019-02-04T22:22:52.729Z,98563.48
2019-02-04T22:25:21.455Z,98559.73
2019-02-04T22:27:49.608Z,98559.52
2019-02-04T22:30:18.718Z,98558.46
2019-02-04T22:32:46.937Z,98564.86
2019-02-04T22:35:15.111Z,98562.95
2019-02-04T22:37:43.326Z,98566.80
2019-02-04T22:40:21.595Z,98570.19
2019-02-04T22:42:49.777Z,98562.73
2019-02-04T22:45:17.988Z,98567.76
2019-02-04T22:47:46.134Z,98563.77
2019-02-04T22:50:15.692Z,98564.83
2019-02-04T22:52:43.848Z,98561.58
2019-02-04T22:55:32.406Z,98565.73
2019-02-04T22:58:00.733Z,98567.86
2019-02-04T23:03:24.617Z,98571.59
2019-02-04T23:05:52.788Z,98560.58
2019-02-04T23:08:20.940Z,98560.09
2019-02-04T23:10:49.138Z,98565.95
2019-02-04T23:15:50.680Z,98563.83
2019-02-04T23:18:18.870Z,98559.52
2019-02-04T23:20:47.078Z,98566.52
2019-02-04T23:23:15.234Z,98570.84
2019-02-04T23:25:43.948Z,98570.53
2019-02-04T23:28:13.304Z,98566.23
2019-02-04T23:30:41.455Z,98569.41
2019-02-04T23:33:09.605Z,98561.45
2019-02-04T23:35:37.739Z,98559.34
2019-02-04T23:38:05.938Z,98561.23
2019-02-04T23:40:34.077Z,98551.47
2019-02-04T23:43:02.292Z,98547.73
2019-02-04T23:45:30.440Z,98541.87
2019-02-04T23:48:00.277Z,98531.38
2019-02-04T23:50:28.447Z,98533.25
2019-02-04T23:52:56.588Z,98526.58
2019-02-04T23:55:24.806Z,98524.46
2019-02-04T23:57:53.016Z,98513.95
